Time;durP1;ratioP1;P1;durP2;ratioP2;P2;SDS_P1;SDS_P2;PMS_P1;PMS_P2;Temp;Humidity;BMP_temperature;BMP_pressure;BME280_temperature;BME280_humidity;BME280_pressure;Samples;Min_cycle;Max_cycle;Signal;HPM_P1;HPM_P2
2022/05/30 00:01:14;;;;;;;7.78;1.42;;;10.90;99.90;;;;;;4894675;29;20338;-57
2022/05/30 00:03:43;;;;;;;5.10;1.60;;;10.90;99.90;;;;;;4869209;29;20492;-57
2022/05/30 00:06:13;;;;;;;4.95;1.45;;;10.80;99.90;;;;;;4895567;29;20111;-57
2022/05/30 00:08:42;;;;;;;5.00;1.58;;;10.80;99.90;;;;;;4887294;29;20411;-57
2022/05/30 00:11:13;;;;;;;10.52;1.80;;;10.80;99.90;;;;;;4895555;29;20060;-56
2022/05/30 00:13:41;;;;;;;5.35;1.40;;;10.70;99.90;;;;;;4893275;29;20649;-56
2022/05/30 00:16:14;;;;;;;3.92;1.40;;;10.70;99.90;;;;;;4895276;29;20052;-57
2022/05/30 00:18:42;;;;;;;7.00;2.10;;;10.60;99.90;;;;;;4878409;29;20060;-57
2022/05/30 00:21:11;;;;;;;8.27;1.92;;;10.60;99.90;;;;;;4895408;29;20045;-57
2022/05/30 00:23:40;;;;;;;6.38;1.38;;;10.60;99.90;;;;;;4890597;29;20044;-56
2022/05/30 00:26:09;;;;;;;9.70;1.73;;;10.60;99.90;;;;;;4895045;29;20143;-57
2022/05/30 00:28:37;;;;;;;3.30;1.63;;;10.60;99.90;;;;;;4895097;29;20048;-57
2022/05/30 00:31:10;;;;;;;7.80;1.40;;;10.60;99.90;;;;;;4895285;29;20051;-56
2022/05/30 00:33:39;;;;;;;5.82;1.23;;;10.60;99.90;;;;;;4894990;29;20053;-57
2022/05/30 00:36:07;;;;;;;6.18;1.83;;;10.60;99.90;;;;;;4894001;29;20059;-56
2022/05/30 00:38:36;;;;;;;3.27;1.40;;;10.50;99.90;;;;;;4886945;29;20057;-57
2022/05/30 00:41:04;;;;;;;6.40;1.58;;;10.50;99.90;;;;;;4895017;29;20302;-57
2022/05/30 00:43:37;;;;;;;4.95;1.95;;;10.50;99.90;;;;;;4893031;29;20049;-56
2022/05/30 00:46:12;;;;;;;5.97;1.95;;;10.50;99.90;;;;;;4893688;29;20385;-57
2022/05/30 00:48:45;;;;;;;3.38;2.20;;;10.50;99.90;;;;;;4893510;29;20053;-57
2022/05/30 00:51:21;;;;;;;6.72;2.00;;;10.50;99.90;;;;;;4895049;29;20070;-56
2022/05/30 00:53:53;;;;;;;6.60;1.80;;;10.50;99.90;;;;;;4888641;29;20056;-57
2022/05/30 00:56:26;;;;;;;9.48;2.00;;;10.50;99.90;;;;;;4894849;29;20051;-57
2022/05/30 00:58:55;;;;;;;5.65;2.15;;;10.50;99.90;;;;;;4877010;29;20052;-57
2022/05/30 01:01:22;;;;;;;9.52;2.10;;;10.40;99.90;;;;;;4893094;29;20055;-57
2022/05/30 01:06:43;;;;;;;4.80;2.03;;;10.40;99.90;;;;;;4890809;29;20048;-55
2022/05/30 01:09:23;;;;;;;5.40;2.00;;;10.40;99.90;;;;;;4892177;29;20485;-56
2022/05/30 01:11:51;;;;;;;4.25;1.73;;;10.40;99.90;;;;;;4874943;29;20052;-55
2022/05/30 01:14:19;;;;;;;4.05;1.98;;;10.40;99.90;;;;;;4877558;29;20068;-56
2022/05/30 01:16:48;;;;;;;5.38;1.95;;;10.40;99.90;;;;;;4894567;29;20052;-55
2022/05/30 01:19:36;;;;;;;3.15;1.83;;;10.40;99.90;;;;;;4892326;29;20056;-56
2022/05/30 01:22:23;;;;;;;6.80;2.03;;;10.40;99.90;;;;;;4862994;29;20070;-57
2022/05/30 01:25:12;;;;;;;3.08;1.70;;;10.40;99.90;;;;;;4892448;29;20408;-56
2022/05/30 01:28:10;;;;;;;9.50;2.28;;;10.40;99.90;;;;;;4893480;29;20501;-56
2022/05/30 01:30:42;;;;;;;2.88;1.73;;;10.30;99.90;;;;;;4891043;29;20044;-56
2022/05/30 01:33:11;;;;;;;2.95;1.70;;;10.30;99.90;;;;;;4873525;29;20556;-56
2022/05/30 01:35:39;;;;;;;2.20;1.42;;;10.30;99.90;;;;;;4894194;29;20052;-55
2022/05/30 01:38:12;;;;;;;3.40;2.00;;;10.30;99.90;;;;;;4894623;29;20076;-55
2022/05/30 01:40:41;;;;;;;2.63;1.67;;;10.30;99.90;;;;;;4895015;29;20048;-56
2022/05/30 01:43:09;;;;;;;4.57;1.67;;;10.30;99.90;;;;;;4894864;29;20045;-56
2022/05/30 01:45:39;;;;;;;4.32;2.13;;;10.20;99.90;;;;;;4891539;29;20501;-57
2022/05/30 01:48:08;;;;;;;3.97;1.90;;;10.20;99.90;;;;;;4893905;29;20060;-56
2022/05/30 01:50:36;;;;;;;7.37;2.27;;;10.20;99.90;;;;;;4894963;29;20052;-57
2022/05/30 01:53:16;;;;;;;5.35;2.50;;;10.20;99.90;;;;;;4885450;29;20518;-57
2022/05/30 01:56:19;;;;;;;6.68;2.15;;;10.20;99.90;;;;;;4889399;29;20550;-57
2022/05/30 01:58:49;;;;;;;3.83;1.70;;;10.20;99.90;;;;;;4893152;29;20454;-58
2022/05/30 02:01:49;;;;;;;6.10;1.98;;;10.20;99.90;;;;;;4884696;29;20493;-57
2022/05/30 02:04:18;;;;;;;7.80;1.88;;;10.20;99.90;;;;;;4893342;29;20411;-57
2022/05/30 02:06:46;;;;;;;3.17;1.98;;;10.20;99.90;;;;;;4893656;29;20532;-57
2022/05/30 02:09:14;;;;;;;7.32;1.92;;;10.10;99.90;;;;;;4893096;29;20489;-58
2022/05/30 02:11:41;;;;;;;2.30;1.60;;;10.10;99.90;;;;;;4897096;29;20045;-57
2022/05/30 02:14:38;;;;;;;3.28;1.77;;;10.10;99.90;;;;;;4846693;29;20515;-57
2022/05/30 02:17:06;;;;;;;4.20;2.00;;;10.00;99.90;;;;;;4894954;29;20044;-56
2022/05/30 02:19:39;;;;;;;6.78;2.38;;;10.00;99.90;;;;;;4880518;29;20422;-57
2022/05/30 02:22:11;;;;;;;6.97;2.28;;;10.00;99.90;;;;;;4894584;29;20049;-57
2022/05/30 02:24:40;;;;;;;7.40;2.28;;;10.00;99.90;;;;;;4879325;29;20056;-57
2022/05/30 02:27:12;;;;;;;5.70;2.30;;;9.90;99.90;;;;;;4896779;29;20392;-56
2022/05/30 02:29:43;;;;;;;5.80;2.65;;;10.00;99.90;;;;;;4897865;29;20048;-56
2022/05/30 02:32:15;;;;;;;7.28;2.60;;;9.90;99.90;;;;;;4897686;29;20071;-57
2022/05/30 02:37:29;;;;;;;8.50;2.60;;;10.00;99.90;;;;;;4896847;29;20524;-59
2022/05/30 02:40:04;;;;;;;6.30;2.47;;;10.00;99.90;;;;;;4881825;29;20065;-57
2022/05/30 02:43:07;;;;;;;3.13;2.45;;;10.00;99.90;;;;;;4893663;29;20053;-56
2022/05/30 02:45:40;;;;;;;4.45;2.42;;;10.00;99.90;;;;;;4887079;29;20396;-56
2022/05/30 02:48:10;;;;;;;4.18;2.33;;;10.00;99.90;;;;;;4897670;29;20053;-56
2022/05/30 02:50:38;;;;;;;10.40;2.90;;;10.00;99.90;;;;;;4898667;29;20056;-57
2022/05/30 02:53:06;;;;;;;6.72;2.65;;;10.00;99.90;;;;;;4894783;29;20550;-56
2022/05/30 02:55:57;;;;;;;2.85;2.45;;;9.90;99.90;;;;;;4897677;29;20044;-57
2022/05/30 02:58:25;;;;;;;5.60;2.60;;;9.90;99.90;;;;;;4898650;29;20390;-57
2022/05/30 03:00:53;;;;;;;6.95;2.65;;;9.90;99.90;;;;;;4897141;29;20051;-57
2022/05/30 03:03:21;;;;;;;8.00;2.80;;;9.90;99.90;;;;;;4897209;29;20044;-57
2022/05/30 03:05:48;;;;;;;4.97;2.78;;;9.80;99.90;;;;;;4897335;29;20415;-58
2022/05/30 03:08:16;;;;;;;4.20;2.70;;;9.80;99.90;;;;;;4897280;29;20044;-56
2022/05/30 03:11:02;;;;;;;5.65;2.83;;;9.80;99.90;;;;;;4898319;29;20052;-55
2022/05/30 03:13:30;;;;;;;4.60;3.33;;;9.70;99.90;;;;;;4896133;29;20646;-56
2022/05/30 03:15:59;;;;;;;5.97;3.08;;;9.70;99.90;;;;;;4897203;29;20036;-57
2022/05/30 03:18:30;;;;;;;4.95;2.30;;;9.70;99.90;;;;;;4896730;29;20048;-56
2022/05/30 03:20:58;;;;;;;7.70;2.92;;;9.70;99.90;;;;;;4896918;29;20501;-57
2022/05/30 03:23:26;;;;;;;5.30;2.50;;;9.70;99.90;;;;;;4897016;29;20048;-56
2022/05/30 03:26:06;;;;;;;;;;;9.60;99.90;;;;;;4896898;29;20056;-56
2022/05/30 03:28:35;;;;;;;6.30;3.03;;;9.70;99.90;;;;;;4896797;29;20304;-56
2022/05/30 03:31:03;;;;;;;6.53;2.38;;;9.60;99.90;;;;;;4881323;29;20044;-56
2022/05/30 03:33:36;;;;;;;7.18;3.17;;;9.60;99.90;;;;;;4896866;29;20055;-56
2022/05/30 03:36:20;;;;;;;3.13;2.53;;;9.60;99.90;;;;;;4896594;29;20048;-56
2022/05/30 03:39:07;;;;;;;7.28;2.83;;;9.60;99.90;;;;;;4897762;29;20048;-56
2022/05/30 03:42:04;;;;;;;8.82;3.10;;;9.60;99.90;;;;;;4897254;29;20056;-54
2022/05/30 03:44:43;;;;;;;8.05;3.35;;;9.60;99.90;;;;;;4892548;29;20053;-56
2022/05/30 03:47:12;;;;;;;6.35;3.28;;;9.60;99.90;;;;;;4878722;29;20049;-56
2022/05/30 03:49:39;;;;;;;9.43;3.85;;;9.60;99.90;;;;;;4877628;29;20056;-56
2022/05/30 03:52:07;;;;;;;3.78;2.60;;;9.60;99.90;;;;;;4877749;29;20048;-57
2022/05/30 03:54:35;;;;;;;5.65;3.00;;;9.60;99.90;;;;;;4877676;29;20045;-57
2022/05/30 03:57:04;;;;;;;5.68;2.85;;;9.60;99.90;;;;;;4877507;29;20057;-55
2022/05/30 03:59:32;;;;;;;5.22;2.92;;;9.60;99.90;;;;;;4877297;29;20056;-56
2022/05/30 04:02:01;;;;;;;5.72;3.28;;;9.50;99.90;;;;;;4877622;29;20049;-55
2022/05/30 04:04:29;;;;;;;4.43;3.08;;;9.50;99.90;;;;;;4862270;29;20056;-56
2022/05/30 04:06:57;;;;;;;4.82;3.03;;;9.50;99.90;;;;;;4880036;29;20053;-56
2022/05/30 04:09:24;;;;;;;3.60;2.65;;;9.50;99.90;;;;;;4895936;29;20064;-56
2022/05/30 04:12:01;;;;;;;4.65;2.30;;;9.40;99.90;;;;;;4896256;29;20055;-56
2022/05/30 04:14:55;;;;;;;6.68;3.03;;;9.50;99.90;;;;;;4896373;29;20071;-55
2022/05/30 04:17:28;;;;;;;;;;;9.50;99.90;;;;;;4897571;29;20516;-56
2022/05/30 04:19:55;;;;;;;5.80;2.50;;;9.40;99.90;;;;;;4894382;29;20312;-56
2022/05/30 04:22:23;;;;;;;5.88;2.33;;;9.40;99.90;;;;;;4911361;29;20627;-56
2022/05/30 04:25:11;;;;;;;2.72;2.10;;;9.40;99.90;;;;;;4894240;29;20045;-57
2022/05/30 04:27:41;;;;;;;3.83;2.15;;;9.40;99.90;;;;;;4895769;29;20060;-57
2022/05/30 04:30:10;;;;;;;2.97;1.77;;;9.40;99.90;;;;;;4895654;29;20041;-57
2022/05/30 04:32:49;;;;;;;;;;;9.50;99.90;;;;;;4891164;29;20059;-57
2022/05/30 04:35:19;;;;;;;4.78;2.20;;;9.50;99.90;;;;;;4895657;29;19923;-57
2022/05/30 04:37:47;;;;;;;6.80;2.63;;;9.50;99.90;;;;;;4895738;29;20437;-57
2022/05/30 04:40:47;;;;;;;4.13;2.03;;;9.40;99.90;;;;;;4884889;29;20370;-57
2022/05/30 04:43:20;;;;;;;5.32;2.22;;;9.40;99.90;;;;;;4894306;29;20214;-56
2022/05/30 04:46:21;;;;;;;2.92;1.83;;;9.40;99.90;;;;;;4861403;29;20061;-57
2022/05/30 04:48:53;;;;;;;2.72;1.70;;;9.50;99.90;;;;;;4875819;29;20052;-57
2022/05/30 04:51:20;;;;;;;2.47;1.58;;;9.50;99.90;;;;;;4873677;29;20053;-56
2022/05/30 04:53:48;;;;;;;3.45;1.60;;;9.50;99.90;;;;;;4873593;29;20580;-60
2022/05/30 04:56:48;;;;;;;3.03;2.33;;;9.40;99.90;;;;;;4862492;29;20057;-57
2022/05/30 04:59:25;;;;;;;3.80;1.50;;;9.40;99.90;;;;;;4891252;29;20056;-57
2022/05/30 05:01:59;;;;;;;4.13;1.23;;;9.40;99.90;;;;;;4887209;29;20489;-57
2022/05/30 05:04:29;;;;;;;2.83;1.20;;;9.30;99.90;;;;;;4876456;29;20521;-56
2022/05/30 05:06:57;;;;;;;6.88;1.45;;;9.30;99.90;;;;;;4871827;29;20049;-56
2022/05/30 05:09:49;;;;;;;2.72;1.52;;;9.30;99.90;;;;;;4892084;29;20048;-57
2022/05/30 05:12:17;;;;;;;1.98;1.20;;;9.30;99.90;;;;;;4892242;29;20067;-57
2022/05/30 05:15:07;;;;;;;;;;;9.30;99.90;;;;;;4890589;29;20041;-56
2022/05/30 05:17:54;;;;;;;7.20;1.52;;;9.30;99.90;;;;;;4891179;29;20304;-57
2022/05/30 05:20:23;;;;;;;1.90;1.20;;;9.30;99.90;;;;;;4888424;29;20043;-56
2022/05/30 05:22:51;;;;;;;5.63;1.57;;;9.20;99.90;;;;;;4892018;29;20056;-56
2022/05/30 05:25:37;;;;;;;2.42;1.30;;;9.30;99.90;;;;;;4893404;29;20950;-57
2022/05/30 05:28:24;;;;;;;4.03;1.63;;;9.30;99.90;;;;;;4894357;29;20041;-56
2022/05/30 05:30:52;;;;;;;2.22;1.50;;;9.30;99.90;;;;;;4891486;29;20052;-56
2022/05/30 05:33:19;;;;;;;3.63;1.40;;;9.40;99.90;;;;;;4889916;29;20053;-55
2022/05/30 05:35:47;;;;;;;2.03;1.33;;;9.40;99.90;;;;;;4891923;29;20056;-57
2022/05/30 05:38:15;;;;;;;3.40;1.60;;;9.40;99.90;;;;;;4894441;29;20053;-57
2022/05/30 05:41:09;;;;;;;1.70;0.98;;;9.40;99.90;;;;;;4893385;29;20633;-56
2022/05/30 05:43:57;;;;;;;3.72;2.03;;;9.40;99.90;;;;;;4893006;29;20044;-58
2022/05/30 05:46:27;;;;;;;2.03;1.02;;;9.40;99.90;;;;;;4877320;29;20049;-58
2022/05/30 05:48:57;;;;;;;3.38;1.15;;;9.30;99.90;;;;;;4893395;29;20051;-57
2022/05/30 05:51:25;;;;;;;2.00;0.98;;;9.30;99.90;;;;;;4893779;29;20481;-56
2022/05/30 05:53:56;;;;;;;3.55;0.95;;;9.30;99.90;;;;;;4877692;29;20497;-56
2022/05/30 05:56:28;;;;;;;2.42;1.08;;;9.30;99.90;;;;;;4895806;29;20040;-56
2022/05/30 05:58:57;;;;;;;4.82;1.08;;;9.30;99.90;;;;;;4895217;29;20064;-57
2022/05/30 06:01:32;;;;;;;4.03;1.67;;;9.30;99.90;;;;;;4895130;29;20043;-57
2022/05/30 06:04:04;;;;;;;2.55;1.33;;;9.30;99.90;;;;;;4893423;29;20047;-56
2022/05/30 06:06:45;;;;;;;1.45;1.08;;;9.50;99.90;;;;;;4893221;29;20408;-57
2022/05/30 06:09:34;;;;;;;2.60;1.30;;;9.60;99.90;;;;;;4895672;29;20523;-58
2022/05/30 06:12:15;;;;;;;;;;;9.80;99.90;;;;;;4898049;29;20048;-57
2022/05/30 06:14:45;;;;;;;1.13;0.90;;;10.00;99.90;;;;;;4869336;29;19924;-57
2022/05/30 06:17:14;;;;;;;2.67;1.00;;;10.20;99.90;;;;;;4892418;29;20049;-56
2022/05/30 06:19:42;;;;;;;2.55;1.00;;;10.30;99.90;;;;;;4881501;29;20061;-58
2022/05/30 06:22:10;;;;;;;5.07;0.82;;;10.40;99.90;;;;;;4880906;29;20071;-57
2022/05/30 06:24:39;;;;;;;2.85;1.10;;;10.50;99.90;;;;;;4895977;29;20044;-58
2022/05/30 06:27:17;;;;;;;2.20;1.10;;;10.50;99.90;;;;;;4897360;29;20355;-57
2022/05/30 06:29:45;;;;;;;1.52;1.25;;;10.60;99.90;;;;;;4888036;29;20041;-56
2022/05/30 06:32:13;;;;;;;3.20;1.08;;;10.60;99.90;;;;;;4893818;29;20056;-57
2022/05/30 06:35:01;;;;;;;3.22;1.30;;;10.70;99.90;;;;;;4892717;29;20069;-56
2022/05/30 06:37:30;;;;;;;5.97;1.10;;;10.70;99.90;;;;;;4882236;29;20653;-57
2022/05/30 06:39:58;;;;;;;5.18;1.80;;;10.80;99.90;;;;;;4886624;29;20055;-56
2022/05/30 06:42:40;;;;;;;5.38;3.20;;;10.90;99.90;;;;;;4881440;29;20420;-56
2022/05/30 06:45:27;;;;;;;3.33;2.20;;;11.00;99.90;;;;;;4885103;29;20049;-56
2022/05/30 06:48:15;;;;;;;8.75;1.75;;;11.00;99.90;;;;;;4891901;29;20070;-56
2022/05/30 06:50:59;;;;;;;9.23;1.25;;;11.10;99.90;;;;;;4877959;29;20514;-56
2022/05/30 06:53:26;;;;;;;2.45;0.95;;;11.10;99.90;;;;;;4871403;29;20049;-56
2022/05/30 06:55:56;;;;;;;;;;;11.10;99.90;;;;;;4880828;29;20051;-56
2022/05/30 06:58:29;;;;;;;4.07;1.30;;;11.20;99.90;;;;;;4888662;29;20292;-56
2022/05/30 07:01:02;;;;;;;1.25;1.15;;;11.20;99.90;;;;;;4864502;29;20037;-56
2022/05/30 07:03:39;;;;;;;7.97;1.80;;;11.20;99.90;;;;;;4892501;29;20516;-56
2022/05/30 07:06:39;;;;;;;1.55;1.02;;;11.30;99.90;;;;;;4867793;29;20049;-56
2022/05/30 07:09:24;;;;;;;4.78;1.08;;;11.30;99.90;;;;;;4894300;29;20041;-57
2022/05/30 07:12:00;;;;;;;2.97;0.98;;;11.40;99.90;;;;;;4894807;29;20056;-56
2022/05/30 07:14:28;;;;;;;2.42;1.05;;;11.40;99.90;;;;;;4888287;29;20040;-56
2022/05/30 07:16:55;;;;;;;0.85;0.63;;;11.50;99.90;;;;;;4877199;29;20443;-56
2022/05/30 07:19:25;;;;;;;2.90;0.90;;;11.50;99.90;;;;;;4889538;29;20044;-56
2022/05/30 07:22:02;;;;;;;1.17;0.68;;;11.60;99.90;;;;;;4885236;29;20044;-57
2022/05/30 07:24:48;;;;;;;2.60;0.70;;;11.60;99.90;;;;;;4888337;29;20048;-57
2022/05/30 07:27:22;;;;;;;0.77;0.50;;;11.70;99.90;;;;;;4891822;29;20540;-56
2022/05/30 07:30:09;;;;;;;2.00;0.75;;;11.70;99.90;;;;;;4894461;29;20049;-56
2022/05/30 07:32:56;;;;;;;2.58;0.70;;;11.70;99.90;;;;;;4882309;29;20036;-58
2022/05/30 07:35:43;;;;;;;2.53;0.88;;;11.70;99.90;;;;;;4893944;29;20057;-57
2022/05/30 07:38:41;;;;;;;2.17;1.00;;;11.70;99.90;;;;;;4898242;29;20060;-58
2022/05/30 07:41:30;;;;;;;6.15;1.08;;;11.70;99.90;;;;;;4895969;29;20393;-57
2022/05/30 07:44:25;;;;;;;2.05;0.93;;;11.70;99.90;;;;;;4873085;29;20514;-57
2022/05/30 07:47:16;;;;;;;3.55;1.27;;;11.70;99.90;;;;;;4888941;29;20052;-56
2022/05/30 07:50:02;;;;;;;3.20;1.33;;;11.70;99.90;;;;;;4877960;29;20068;-57
2022/05/30 07:52:53;;;;;;;1.65;0.90;;;11.80;99.90;;;;;;4890943;29;20067;-57
2022/05/30 07:55:42;;;;;;;2.40;1.20;;;11.80;99.90;;;;;;4889535;29;20040;-57
2022/05/30 07:58:12;;;;;;;2.70;1.55;;;11.90;99.90;;;;;;4886300;29;20059;-57
2022/05/30 08:00:44;;;;;;;3.75;1.40;;;11.90;99.90;;;;;;4878120;29;20504;-57
2022/05/30 08:03:19;;;;;;;1.58;1.10;;;11.90;99.90;;;;;;4882972;29;20052;-57
2022/05/30 08:06:28;;;;;;;2.67;1.45;;;11.90;99.90;;;;;;4884166;29;20052;-57
2022/05/30 08:09:14;;;;;;;3.08;0.98;;;12.00;99.90;;;;;;4893357;29;20045;-57
2022/05/30 08:12:06;;;;;;;5.05;1.52;;;12.20;99.90;;;;;;4887779;29;20063;-57
2022/05/30 08:14:53;;;;;;;2.17;0.98;;;12.20;99.90;;;;;;4882072;29;20057;-57
2022/05/30 08:17:23;;;;;;;3.70;0.90;;;12.20;99.90;;;;;;4884127;29;20057;-56
2022/05/30 08:19:51;;;;;;;4.95;0.90;;;12.20;99.90;;;;;;4882695;29;20123;-56
2022/05/30 08:22:26;;;;;;;3.38;1.00;;;12.30;99.90;;;;;;4891234;29;20049;-57
2022/05/30 08:24:54;;;;;;;8.15;1.20;;;12.30;99.90;;;;;;4890902;29;20056;-57
2022/05/30 08:27:25;;;;;;;7.53;1.08;;;12.30;99.90;;;;;;4892131;29;20056;-57
2022/05/30 08:30:03;;;;;;;1.63;0.70;;;12.30;99.90;;;;;;4890299;29;20059;-57
2022/05/30 08:32:35;;;;;;;3.08;0.70;;;12.30;99.90;;;;;;4875536;29;20045;-57
2022/05/30 08:35:22;;;;;;;3.63;2.15;;;12.30;99.90;;;;;;4881390;29;20049;-57
2022/05/30 08:37:55;;;;;;;6.20;0.98;;;12.30;99.90;;;;;;4906611;29;20055;-57
2022/05/30 08:43:19;;;;;;;3.20;0.90;;;12.30;99.90;;;;;;4890439;29;20044;-56
2022/05/30 08:46:16;;;;;;;1.02;0.55;;;12.40;99.90;;;;;;4892234;29;20052;-57
2022/05/30 08:49:26;;;;;;;1.63;0.65;;;12.40;99.90;;;;;;4867710;29;20053;-57
2022/05/30 08:52:19;;;;;;;4.72;1.08;;;12.50;99.90;;;;;;4882717;29;21874;-56
2022/05/30 08:55:03;;;;;;;6.43;1.25;;;12.60;99.90;;;;;;4872263;29;20048;-57
2022/05/30 08:57:54;;;;;;;3.58;0.70;;;12.80;99.90;;;;;;4885369;29;20516;-56
2022/05/30 09:01:04;;;;;;;4.38;0.82;;;12.90;99.90;;;;;;4879856;29;20049;-57
2022/05/30 09:04:33;;;;;;;3.15;0.93;;;13.10;99.90;;;;;;4888405;29;20044;-56
2022/05/30 09:07:03;;;;;;;5.55;1.13;;;13.30;99.90;;;;;;4882444;29;20071;-56
2022/05/30 09:09:52;;;;;;;1.27;0.70;;;13.40;99.90;;;;;;4874642;29;20828;-56
2022/05/30 09:12:42;;;;;;;5.70;0.90;;;13.50;99.90;;;;;;4882161;29;20044;-56
2022/05/30 09:16:03;;;;;;;3.60;0.70;;;13.50;99.90;;;;;;4873492;29;20045;-56
2022/05/30 09:18:40;;;;;;;4.03;0.40;;;13.60;99.90;;;;;;4881162;29;20151;-57
2022/05/30 09:21:08;;;;;;;1.38;0.35;;;13.70;99.90;;;;;;4885690;29;20464;-57
2022/05/30 09:23:36;;;;;;;4.30;0.55;;;13.80;99.90;;;;;;4893304;29;20049;-56
2022/05/30 09:26:07;;;;;;;3.28;0.60;;;13.80;99.90;;;;;;4894553;29;20053;-56
2022/05/30 09:28:54;;;;;;;0.88;0.45;;;13.80;99.90;;;;;;4905691;29;20552;-57
2022/05/30 09:31:58;;;;;;;1.13;0.98;;;13.80;99.90;;;;;;4898314;29;20044;-57
2022/05/30 09:35:28;;;;;;;2.35;0.50;;;13.90;99.90;;;;;;4878516;29;20077;-57
2022/05/30 09:38:20;;;;;;;5.10;0.63;;;13.90;99.90;;;;;;4881863;29;20056;-56
2022/05/30 09:41:06;;;;;;;3.33;0.60;;;13.90;99.90;;;;;;4894295;29;20497;-57
2022/05/30 09:44:21;;;;;;;5.53;0.70;;;13.90;99.90;;;;;;4886648;29;20041;-57
2022/05/30 09:47:18;;;;;;;5.53;0.80;;;13.90;99.90;;;;;;4878669;29;20044;-56
2022/05/30 09:50:18;;;;;;;2.08;0.40;;;14.00;99.90;;;;;;4882208;29;20504;-56
2022/05/30 09:52:46;;;;;;;3.75;0.75;;;14.00;99.90;;;;;;4890187;29;20176;-56
2022/05/30 09:55:33;;;;;;;4.10;0.52;;;14.10;99.90;;;;;;4880267;29;20045;-57
2022/05/30 09:58:08;;;;;;;4.45;0.70;;;14.10;99.90;;;;;;4887853;29;20047;-58
2022/05/30 10:00:58;;;;;;;2.08;1.05;;;14.10;99.90;;;;;;4886268;29;20044;-56
2022/05/30 10:03:36;;;;;;;3.35;0.73;;;14.20;99.90;;;;;;4893027;29;20516;-56
2022/05/30 10:06:25;;;;;;;8.50;1.10;;;14.20;99.90;;;;;;4896187;29;20049;-57
2022/05/30 10:09:22;;;;;;;4.65;0.82;;;14.20;99.90;;;;;;4885379;29;20048;-56
2022/05/30 10:11:55;;;;;;;3.92;1.27;;;14.30;99.90;;;;;;4893218;29;20052;-56
2022/05/30 10:14:25;;;;;;;;;;;14.40;99.90;;;;;;4894934;29;20617;-57
2022/05/30 10:17:32;;;;;;;2.42;0.80;;;14.40;99.90;;;;;;4894369;29;19924;-57
2022/05/30 10:20:12;;;;;;;2.85;0.68;;;14.40;99.90;;;;;;4908274;29;20497;-56
2022/05/30 10:30:06;;;;;;;5.15;0.80;;;14.20;99.80;;;;;;4870698;29;20192;-56
2022/05/30 10:33:18;;;;;;;1.92;0.80;;;14.10;99.90;;;;;;4879686;29;20057;-56
2022/05/30 10:36:20;;;;;;;1.65;0.70;;;14.20;99.90;;;;;;4894895;29;20520;-56
2022/05/30 10:39:04;;;;;;;1.75;0.68;;;14.30;99.90;;;;;;4893364;29;20417;-56
2022/05/30 10:41:43;;;;;;;3.85;1.35;;;14.50;99.90;;;;;;4893834;29;20044;-56
2022/05/30 10:44:28;;;;;;;4.57;0.60;;;14.70;98.90;;;;;;4893052;29;20044;-56
2022/05/30 10:47:16;;;;;;;3.03;0.57;;;14.90;99.10;;;;;;4870659;29;20387;-55
2022/05/30 10:50:00;;;;;;;2.50;0.50;;;15.10;98.60;;;;;;4892929;29;20056;-56
2022/05/30 10:52:57;;;;;;;2.53;0.50;;;15.30;98.00;;;;;;4893051;29;20053;-56
2022/05/30 10:55:45;;;;;;;3.35;1.08;;;15.50;96.80;;;;;;4875834;29;20404;-56
2022/05/30 10:58:33;;;;;;;3.03;0.40;;;15.60;96.70;;;;;;4909433;29;20036;-56
2022/05/30 11:01:14;;;;;;;1.65;0.50;;;15.70;96.40;;;;;;4886998;29;20409;-56
2022/05/30 11:03:50;;;;;;;2.78;0.50;;;15.70;95.80;;;;;;4890813;29;20055;-57
2022/05/30 11:06:26;;;;;;;1.48;0.40;;;15.90;95.00;;;;;;4891324;29;20403;-56
2022/05/30 11:09:12;;;;;;;0.88;0.50;;;15.90;95.20;;;;;;4892047;29;20048;-57
2022/05/30 11:11:58;;;;;;;2.03;0.47;;;16.00;95.00;;;;;;4888215;29;20440;-56
2022/05/30 11:14:53;;;;;;;1.85;0.32;;;16.10;94.80;;;;;;4887557;29;20040;-57
2022/05/30 11:18:09;;;;;;;1.02;0.40;;;16.10;93.00;;;;;;4853830;29;20057;-56
2022/05/30 11:21:18;;;;;;;3.25;0.50;;;16.00;92.60;;;;;;4859140;29;20060;-56
2022/05/30 11:23:46;;;;;;;3.25;0.88;;;15.90;92.70;;;;;;4876233;29;20059;-56
2022/05/30 11:26:29;;;;;;;3.60;0.60;;;15.80;93.30;;;;;;4890473;29;20095;-56
2022/05/30 11:29:24;;;;;;;2.70;0.40;;;15.90;93.90;;;;;;4891893;29;20064;-57
2022/05/30 11:32:03;;;;;;;2.03;0.40;;;16.10;93.60;;;;;;4883722;29;20056;-56
2022/05/30 11:35:02;;;;;;;3.40;0.90;;;16.20;94.00;;;;;;4886666;29;20059;-56
2022/05/30 11:37:58;;;;;;;3.33;1.17;;;16.10;94.10;;;;;;4887143;29;20060;-57
2022/05/30 11:40:53;;;;;;;12.55;2.88;;;15.90;94.20;;;;;;4890391;29;20064;-56
2022/05/30 11:43:20;;;;;;;2.95;1.10;;;15.60;94.80;;;;;;4885787;29;20056;-56
2022/05/30 11:46:02;;;;;;;3.33;0.77;;;15.30;95.40;;;;;;4889045;29;20048;-56
2022/05/30 11:48:57;;;;;;;7.28;0.80;;;15.00;96.10;;;;;;4892193;29;20041;-55
2022/05/30 11:51:48;;;;;;;2.35;0.85;;;14.50;98.30;;;;;;4893916;29;20041;-56
2022/05/30 11:54:24;;;;;;;4.05;1.00;;;14.00;99.90;;;;;;4885197;29;21543;-56
2022/05/30 11:57:30;;;;;;;2.22;1.00;;;13.40;99.90;;;;;;4893763;29;20064;-56
2022/05/30 12:00:04;;;;;;;2.20;0.98;;;12.90;99.90;;;;;;4889625;29;20417;-55
2022/05/30 12:03:09;;;;;;;4.38;1.10;;;12.50;99.90;;;;;;4883630;29;20114;-57
2022/05/30 12:05:57;;;;;;;1.05;0.65;;;12.30;99.90;;;;;;4883714;29;20044;-57
2022/05/30 12:09:10;;;;;;;2.88;0.70;;;12.20;99.90;;;;;;4884345;29;20053;-57
2022/05/30 12:11:54;;;;;;;2.15;0.65;;;12.10;99.90;;;;;;4893597;29;20049;-57
2022/05/30 12:14:41;;;;;;;3.17;0.88;;;12.00;99.90;;;;;;4893646;29;20374;-57
2022/05/30 12:17:33;;;;;;;1.33;0.45;;;12.00;99.90;;;;;;4890323;29;20048;-60
2022/05/30 12:25:55;;;;;;;1.27;0.43;;;12.30;99.90;;;;;;4893879;29;20051;-57
2022/05/30 12:28:30;;;;;;;2.05;0.30;;;12.60;99.90;;;;;;4895023;29;20052;-58
2022/05/30 12:31:01;;;;;;;0.28;0.28;;;12.90;99.90;;;;;;4892799;29;20044;-58
2022/05/30 12:33:29;;;;;;;1.13;0.43;;;13.10;99.90;;;;;;4893449;29;20065;-57
2022/05/30 12:36:08;;;;;;;2.72;0.30;;;13.30;99.90;;;;;;4893064;29;20049;-58
2022/05/30 12:38:58;;;;;;;1.70;0.38;;;13.50;99.90;;;;;;4891940;29;20063;-58
2022/05/30 12:41:38;;;;;;;3.42;0.52;;;14.00;99.90;;;;;;4892349;29;20056;-59
2022/05/30 12:44:45;;;;;;;1.50;0.70;;;14.50;99.90;;;;;;4883902;29;20509;-58
2022/05/30 12:47:30;;;;;;;2.90;0.70;;;14.90;99.90;;;;;;4886298;29;20048;-57
2022/05/30 12:50:15;;;;;;;2.25;0.73;;;15.10;99.90;;;;;;4896299;29;20513;-57
2022/05/30 12:52:56;;;;;;;4.47;1.05;;;15.10;99.90;;;;;;4892702;29;20579;-57
2022/05/30 12:55:41;;;;;;;1.38;0.90;;;15.00;99.90;;;;;;4892354;29;20056;-57
2022/05/30 12:58:11;;;;;;;3.55;1.40;;;14.80;99.90;;;;;;4889874;29;20060;-57
2022/05/30 13:00:43;;;;;;;5.18;1.85;;;14.70;99.90;;;;;;4890098;29;20056;-57
2022/05/30 13:03:23;;;;;;;2.78;1.20;;;14.60;99.90;;;;;;4889187;29;20052;-57
2022/05/30 13:06:00;;;;;;;5.90;1.20;;;14.40;99.90;;;;;;4870408;29;20049;-58
2022/05/30 13:09:01;;;;;;;7.65;1.33;;;14.20;99.90;;;;;;4882103;29;20053;-57
2022/05/30 13:11:53;;;;;;;4.55;1.40;;;13.90;99.90;;;;;;4889097;29;20052;-57
2022/05/30 13:14:36;;;;;;;3.95;1.40;;;13.60;99.90;;;;;;4891389;29;20045;-58
2022/05/30 13:17:19;;;;;;;7.68;1.55;;;13.40;99.90;;;;;;4888182;29;20056;-56
2022/05/30 13:19:52;;;;;;;6.25;1.50;;;13.20;99.90;;;;;;4888374;29;20049;-58
2022/05/30 13:22:31;;;;;;;8.32;2.05;;;13.00;99.90;;;;;;4892732;29;20108;-58
2022/05/30 13:25:00;;;;;;;7.25;1.73;;;12.90;99.90;;;;;;4886881;29;20045;-59
2022/05/30 13:27:29;;;;;;;4.88;2.00;;;12.80;99.90;;;;;;4889637;29;20045;-59
2022/05/30 13:30:07;;;;;;;5.10;1.75;;;12.80;99.90;;;;;;4890884;29;20049;-58
2022/05/30 13:32:37;;;;;;;6.22;1.75;;;12.80;99.90;;;;;;4886511;29;20072;-59
2022/05/30 13:35:08;;;;;;;;;;;12.80;99.90;;;;;;4891827;29;20401;-60
2022/05/30 13:37:44;;;;;;;6.03;1.75;;;12.90;99.90;;;;;;4889196;29;19924;-58
2022/05/30 13:40:21;;;;;;;5.97;1.73;;;12.90;99.90;;;;;;4880715;29;20060;-59
2022/05/30 13:42:50;;;;;;;3.22;1.90;;;13.00;99.90;;;;;;4886009;29;20382;-59
2022/05/30 13:45:51;;;;;;;2.85;1.80;;;13.00;99.90;;;;;;4892726;29;20053;-60
2022/05/30 13:48:19;;;;;;;8.25;1.98;;;12.90;99.90;;;;;;4874985;29;20060;-59
2022/05/30 13:51:01;;;;;;;2.88;1.23;;;12.90;99.90;;;;;;4890870;29;20416;-57
2022/05/30 13:53:48;;;;;;;5.70;1.77;;;12.80;99.90;;;;;;4890883;29;20048;-58
2022/05/30 13:56:40;;;;;;;6.60;2.00;;;12.70;99.90;;;;;;4888012;29;20045;-59
2022/05/30 13:59:29;;;;;;;10.27;1.60;;;12.70;99.90;;;;;;4889397;29;20551;-58
2022/05/30 14:02:24;;;;;;;3.75;1.20;;;12.70;99.90;;;;;;4875988;29;20033;-58
2022/05/30 14:05:00;;;;;;;4.25;1.60;;;12.80;99.90;;;;;;4900511;29;20060;-58
2022/05/30 14:07:44;;;;;;;3.25;1.23;;;12.80;99.90;;;;;;4890075;29;20047;-57
2022/05/30 14:10:19;;;;;;;2.08;1.27;;;12.90;99.90;;;;;;4876682;29;20040;-57
2022/05/30 14:13:17;;;;;;;4.68;1.10;;;12.90;99.90;;;;;;4885153;29;20041;-59
2022/05/30 14:15:53;;;;;;;3.38;0.90;;;13.10;99.90;;;;;;4887986;29;20049;-57